Time;durP1;ratioP1;P1;durP2;ratioP2;P2;SDS_P1;SDS_P2;PMS_P1;PMS_P2;Temp;Humidity;BMP_temperature;BMP_pressure;BME280_temperature;BME280_humidity;BME280_pressure;Samples;Min_cycle;Max_cycle;Signal;HPM_P1;HPM_P2
2021/12/21 00:03:35;;;;;;;9.13;7.23;;;2.70;40.90;;;;;;10306007;28;20245;-72
2021/12/21 00:08:39;;;;;;;11.03;8.77;;;2.60;40.80;;;;;;10308844;28;20234;-73
2021/12/21 00:14:10;;;;;;;8.80;6.70;;;2.60;40.80;;;;;;10311542;28;20250;-74
2021/12/21 00:19:38;;;;;;;8.53;6.37;;;2.50;40.70;;;;;;10320244;28;20765;-73
2021/12/21 00:24:46;;;;;;;10.97;7.67;;;2.50;40.70;;;;;;10343237;28;20233;-73
2021/12/21 00:29:49;;;;;;;9.20;8.07;;;2.50;40.70;;;;;;10334579;28;20704;-73
2021/12/21 00:34:54;;;;;;;9.60;7.60;;;2.40;40.60;;;;;;10326943;28;20759;-73
2021/12/21 00:39:58;;;;;;;8.50;6.97;;;2.40;40.60;;;;;;10325500;28;20269;-73
2021/12/21 00:45:01;;;;;;;8.17;6.20;;;2.30;40.50;;;;;;10326914;28;20241;-73
2021/12/21 00:50:08;;;;;;;7.03;6.00;;;2.40;40.60;;;;;;10334159;28;20314;-72
2021/12/21 00:55:14;;;;;;;7.73;6.23;;;2.30;40.50;;;;;;10328137;28;20656;-73
2021/12/21 01:00:21;;;;;;;8.20;6.17;;;2.20;40.40;;;;;;10320290;28;20865;-73
2021/12/21 01:05:31;;;;;;;8.07;6.70;;;2.20;40.40;;;;;;10353197;28;20235;-73
2021/12/21 01:21:27;;;;;;;7.47;5.43;;;2.00;40.30;;;;;;10325435;28;20239;-73
2021/12/21 01:26:38;;;;;;;9.40;5.90;;;1.90;40.30;;;;;;10327816;28;20728;-73
2021/12/21 01:31:50;;;;;;;9.07;5.87;;;1.80;40.60;;;;;;10325460;28;20246;-73
2021/12/21 01:37:00;;;;;;;8.27;5.60;;;1.80;40.40;;;;;;10343498;28;20231;-73
2021/12/21 01:42:13;;;;;;;7.13;5.50;;;1.80;40.20;;;;;;10350882;28;20238;-73
2021/12/21 01:52:39;;;;;;;7.93;5.13;;;1.70;40.50;;;;;;10327768;28;20239;-72
2021/12/21 01:57:42;;;;;;;6.40;5.03;;;1.60;40.40;;;;;;10338421;28;20231;-73
2021/12/21 02:02:45;;;;;;;6.93;4.87;;;1.60;40.60;;;;;;10330145;28;20238;-73
2021/12/21 02:07:52;;;;;;;6.43;5.03;;;1.60;40.60;;;;;;10324247;28;20258;-73
2021/12/21 02:12:55;;;;;;;7.63;4.33;;;1.60;40.40;;;;;;10350541;28;20238;-73
2021/12/21 02:23:30;;;;;;;5.37;4.87;;;1.60;40.40;;;;;;10319320;28;22494;-73
2021/12/21 02:33:51;;;;;;;6.27;4.87;;;1.50;40.40;;;;;;10326005;28;20242;-73
2021/12/21 02:38:55;;;;;;;10.40;4.97;;;1.50;40.60;;;;;;10329750;28;20713;-73
2021/12/21 02:43:58;;;;;;;8.87;6.27;;;1.50;40.10;;;;;;10325303;28;20230;-73
2021/12/21 02:49:01;;;;;;;6.90;5.37;;;1.40;40.10;;;;;;10332803;28;20230;-73
2021/12/21 02:54:07;;;;;;;6.63;5.50;;;1.40;40.30;;;;;;10333312;28;20318;-73
2021/12/21 02:59:10;;;;;;;7.97;5.57;;;1.30;40.30;;;;;;10329548;28;20249;-73
2021/12/21 03:04:14;;;;;;;6.93;5.30;;;1.30;40.40;;;;;;10333181;28;20739;-72
2021/12/21 03:09:37;;;;;;;5.80;4.93;;;1.30;40.40;;;;;;10327093;28;20231;-73
2021/12/21 03:14:41;;;;;;;9.47;5.43;;;1.30;40.40;;;;;;10321038;28;20231;-72
2021/12/21 03:19:44;;;;;;;7.33;5.97;;;1.20;40.50;;;;;;10334666;28;20235;-72
2021/12/21 03:24:49;;;;;;;8.90;5.90;;;1.20;40.50;;;;;;10332161;28;20676;-73
2021/12/21 03:29:52;;;;;;;6.63;5.43;;;1.20;40.50;;;;;;10346146;28;20226;-72
2021/12/21 03:34:55;;;;;;;6.17;5.17;;;1.20;40.50;;;;;;10338148;28;20230;-73
2021/12/21 03:40:01;;;;;;;7.23;5.37;;;1.20;40.60;;;;;;10320607;28;20270;-72
2021/12/21 03:45:06;;;;;;;8.17;5.73;;;1.10;40.40;;;;;;10325870;28;20245;-73
2021/12/21 03:50:17;;;;;;;8.07;5.13;;;1.10;40.50;;;;;;10321425;28;20228;-73
2021/12/21 03:55:21;;;;;;;5.57;4.87;;;1.10;40.40;;;;;;10328843;28;20726;-73
2021/12/21 04:00:27;;;;;;;7.13;4.37;;;1.10;40.40;;;;;;10324881;28;20743;-73
2021/12/21 04:05:30;;;;;;;6.10;4.57;;;1.00;40.40;;;;;;10312989;28;20836;-73
2021/12/21 04:10:35;;;;;;;5.80;4.63;;;1.00;40.40;;;;;;10313649;28;20230;-72
2021/12/21 04:15:42;;;;;;;5.37;4.50;;;1.00;40.30;;;;;;10323160;28;20234;-72
2021/12/21 04:20:45;;;;;;;4.90;4.00;;;1.00;40.40;;;;;;10312991;28;20239;-72
2021/12/21 04:25:50;;;;;;;6.93;4.70;;;0.90;40.20;;;;;;10317659;28;20697;-72
2021/12/21 04:30:53;;;;;;;6.97;3.90;;;1.10;40.20;;;;;;10341691;28;20227;-73
2021/12/21 04:35:57;;;;;;;6.13;4.70;;;0.90;40.20;;;;;;10335539;28;20234;-73
2021/12/21 04:41:08;;;;;;;4.63;3.83;;;0.80;40.20;;;;;;10337350;28;20238;-72
2021/12/21 04:46:12;;;;;;;7.83;4.23;;;0.80;40.10;;;;;;10337290;28;20764;-73
2021/12/21 04:51:15;;;;;;;5.40;4.20;;;0.80;40.20;;;;;;10329333;28;20231;-73
2021/12/21 04:56:20;;;;;;;4.97;4.47;;;0.80;40.10;;;;;;10324899;28;20242;-73
2021/12/21 05:01:23;;;;;;;5.03;4.37;;;0.70;40.00;;;;;;10341751;28;21027;-73
2021/12/21 05:06:27;;;;;;;5.00;4.33;;;0.80;40.30;;;;;;10346079;28;20238;-73
2021/12/21 05:11:36;;;;;;;4.73;4.23;;;0.70;40.10;;;;;;10345888;28;20246;-72
2021/12/21 05:16:39;;;;;;;5.17;4.23;;;0.60;40.00;;;;;;10314154;28;20262;-75
2021/12/21 05:21:42;;;;;;;6.00;4.57;;;0.60;40.10;;;;;;10343228;28;20241;-73
2021/12/21 05:26:47;;;;;;;5.27;4.10;;;0.60;40.10;;;;;;10332125;28;20228;-73
2021/12/21 05:31:50;;;;;;;6.97;5.30;;;0.50;40.00;;;;;;10339362;28;20255;-73
2021/12/21 05:36:54;;;;;;;8.07;5.23;;;0.50;40.00;;;;;;10332465;28;20649;-73
2021/12/21 05:41:59;;;;;;;6.27;5.03;;;0.60;40.20;;;;;;10332526;28;20231;-73
2021/12/21 05:47:02;;;;;;;8.37;4.83;;;0.50;40.00;;;;;;10333085;28;20228;-73
2021/12/21 05:52:06;;;;;;;5.63;4.90;;;0.40;40.00;;;;;;10330800;28;20242;-72
2021/12/21 05:57:10;;;;;;;6.27;4.63;;;0.40;40.00;;;;;;10336898;28;20242;-73
2021/12/21 06:02:14;;;;;;;5.97;4.83;;;0.40;39.90;;;;;;10308319;28;20246;-73
2021/12/21 06:07:17;;;;;;;5.27;4.73;;;0.30;39.90;;;;;;10330410;28;20272;-74
2021/12/21 06:12:37;;;;;;;8.53;6.00;;;0.20;39.90;;;;;;10350265;28;20792;-72
2021/12/21 06:23:25;;;;;;;7.83;5.83;;;0.30;41.70;;;;;;10319503;28;20242;-72
2021/12/21 06:28:31;;;;;;;7.07;5.30;;;0.40;41.20;;;;;;10323822;28;20678;-72
2021/12/21 06:33:34;;;;;;;6.87;5.43;;;0.40;40.80;;;;;;10321381;28;20771;-72
2021/12/21 06:38:38;;;;;;;6.63;5.73;;;0.40;40.60;;;;;;10318086;28;20227;-72
2021/12/21 06:43:43;;;;;;;7.00;5.10;;;0.40;40.20;;;;;;10316433;28;20242;-72
2021/12/21 06:54:22;;;;;;;7.57;4.90;;;0.20;40.00;;;;;;10193826;29;20248;-72
2021/12/21 06:59:27;;;;;;;7.97;4.87;;;0.20;40.00;;;;;;10281176;28;20235;-72
2021/12/21 07:04:31;;;;;;;7.83;5.00;;;0.10;39.70;;;;;;10316813;28;20241;-72
2021/12/21 07:09:40;;;;;;;7.73;4.60;;;0.10;40.00;;;;;;10315955;28;20246;-72
2021/12/21 07:20:07;;;;;;;6.33;5.17;;;0.00;40.00;;;;;;10317067;28;20234;-72
2021/12/21 07:25:11;;;;;;;7.43;4.90;;;0.00;40.10;;;;;;10311658;28;20237;-72
2021/12/21 07:30:15;;;;;;;9.83;6.23;;;0.00;40.10;;;;;;10316127;28;20228;-72
2021/12/21 07:35:19;;;;;;;6.53;5.73;;;0.00;40.10;;;;;;10311948;28;20238;-72
2021/12/21 07:40:22;;;;;;;9.47;6.17;;;-0.10;40.10;;;;;;10318171;28;20270;-72
2021/12/21 07:45:27;;;;;;;8.67;6.53;;;-0.10;40.10;;;;;;10316355;28;20235;-72
2021/12/21 07:50:30;;;;;;;9.87;6.50;;;-0.10;40.20;;;;;;10308919;28;20252;-72
2021/12/21 07:55:34;;;;;;;9.27;6.17;;;-0.10;40.20;;;;;;10309872;28;20234;-72
2021/12/21 08:00:39;;;;;;;8.53;5.27;;;0.00;40.40;;;;;;10313899;28;20310;-72
2021/12/21 08:05:45;;;;;;;6.37;5.03;;;0.00;40.60;;;;;;10314926;28;20246;-72
2021/12/21 08:10:52;;;;;;;7.27;4.83;;;0.10;40.90;;;;;;10314021;28;20296;-72
2021/12/21 08:15:57;;;;;;;8.77;4.47;;;0.30;41.30;;;;;;10316148;28;20239;-72
2021/12/21 08:21:00;;;;;;;6.90;4.43;;;0.20;41.30;;;;;;10312722;28;20257;-72
2021/12/21 08:26:06;;;;;;;5.60;3.93;;;0.30;41.40;;;;;;10324048;28;20234;-72
2021/12/21 08:31:12;;;;;;;3.73;3.37;;;0.40;41.60;;;;;;10325184;28;20314;-72
2021/12/21 08:36:15;;;;;;;5.80;4.07;;;0.50;41.80;;;;;;10325749;28;20237;-72
2021/12/21 08:41:20;;;;;;;4.73;4.20;;;0.60;42.00;;;;;;10318871;28;20818;-72
2021/12/21 08:46:25;;;;;;;6.07;4.33;;;0.90;42.40;;;;;;10321476;28;20309;-72
2021/12/21 08:51:28;;;;;;;6.63;4.73;;;0.90;42.50;;;;;;10318967;28;20609;-73
2021/12/21 08:56:31;;;;;;;6.03;4.50;;;1.10;42.60;;;;;;10321446;28;20236;-74
2021/12/21 09:01:36;;;;;;;5.50;4.47;;;1.20;42.70;;;;;;10323178;28;20227;-74
2021/12/21 09:06:39;;;;;;;6.10;4.47;;;1.40;42.80;;;;;;10327514;28;20604;-74
2021/12/21 09:11:46;;;;;;;4.90;4.40;;;1.50;42.90;;;;;;10309474;28;20768;-74
2021/12/21 09:16:51;;;;;;;5.63;4.50;;;1.60;43.00;;;;;;10316425;28;20749;-73
2021/12/21 09:21:55;;;;;;;5.90;4.20;;;1.80;43.10;;;;;;10319091;28;20238;-73
2021/12/21 09:26:59;;;;;;;6.70;4.37;;;1.90;43.00;;;;;;10321306;28;20234;-72
2021/12/21 09:32:04;;;;;;;5.40;4.27;;;2.00;43.20;;;;;;10326729;28;20280;-74
2021/12/21 09:37:08;;;;;;;5.87;4.07;;;2.10;43.60;;;;;;10326043;28;20259;-73
2021/12/21 09:42:15;;;;;;;5.00;4.00;;;2.30;43.90;;;;;;10332181;28;20259;-73
2021/12/21 09:47:20;;;;;;;5.50;4.40;;;2.50;44.10;;;;;;10324478;28;20231;-73
2021/12/21 09:52:29;;;;;;;6.20;4.40;;;2.70;44.30;;;;;;10320904;28;20254;-74
2021/12/21 09:57:32;;;;;;;5.10;4.43;;;3.00;44.70;;;;;;10314312;28;20250;-74
2021/12/21 10:02:37;;;;;;;5.30;4.80;;;3.20;44.50;;;;;;10324095;28;20235;-75
2021/12/21 10:07:41;;;;;;;4.67;4.20;;;3.40;44.70;;;;;;10326928;28;20262;-74
2021/12/21 10:12:47;;;;;;;5.37;4.87;;;3.60;44.40;;;;;;10328310;28;20259;-75
2021/12/21 10:17:54;;;;;;;5.53;5.03;;;3.90;44.50;;;;;;10322909;28;20239;-74
2021/12/21 10:22:57;;;;;;;6.00;5.27;;;4.10;44.30;;;;;;10321200;28;20247;-75
2021/12/21 10:28:01;;;;;;;6.33;5.37;;;4.30;44.20;;;;;;10325244;28;20224;-75
2021/12/21 10:33:05;;;;;;;6.53;5.10;;;4.50;44.00;;;;;;10321619;28;20250;-73
2021/12/21 10:38:09;;;;;;;7.10;5.30;;;4.70;43.80;;;;;;10321871;28;20235;-73
2021/12/21 10:43:13;;;;;;;5.70;5.13;;;4.80;43.60;;;;;;10319269;28;20289;-75
2021/12/21 10:48:19;;;;;;;5.70;5.20;;;5.00;43.50;;;;;;10319862;28;20235;-75
2021/12/21 10:53:25;;;;;;;4.73;4.30;;;5.10;42.90;;;;;;10322526;28;20236;-75
2021/12/21 10:58:31;;;;;;;4.90;4.40;;;5.30;42.80;;;;;;10322466;28;20239;-75
2021/12/21 11:03:40;;;;;;;5.03;4.53;;;5.40;42.90;;;;;;10318590;28;20263;-74
2021/12/21 11:08:46;;;;;;;4.80;4.40;;;5.50;42.40;;;;;;10309977;28;20319;-74
2021/12/21 11:14:00;;;;;;;5.43;4.20;;;5.60;42.30;;;;;;10323404;28;20294;-74
2021/12/21 11:19:06;;;;;;;4.63;4.27;;;5.70;41.40;;;;;;10326668;28;20230;-78
2021/12/21 11:24:11;;;;;;;5.43;4.43;;;5.80;41.80;;;;;;10320393;28;20258;-78
2021/12/21 11:29:17;;;;;;;8.93;6.53;;;5.90;42.00;;;;;;10313716;28;20231;-77
2021/12/21 11:34:24;;;;;;;6.17;4.60;;;6.00;41.60;;;;;;10318993;28;20235;-77
2021/12/21 11:39:31;;;;;;;4.67;4.27;;;6.00;40.60;;;;;;10316481;28;20271;-77
2021/12/21 11:44:51;;;;;;;5.97;4.47;;;6.00;40.40;;;;;;10312663;28;20901;-76
2021/12/21 11:50:01;;;;;;;4.33;3.93;;;5.90;39.00;;;;;;10314478;28;20237;-73
2021/12/21 11:55:07;;;;;;;4.43;3.87;;;5.90;40.80;;;;;;10313616;28;20249;-72
2021/12/21 12:00:15;;;;;;;6.80;4.30;;;5.90;40.60;;;;;;10324394;28;20225;-74
2021/12/21 12:05:23;;;;;;;3.97;3.67;;;6.00;39.70;;;;;;10324590;28;20245;-73
2021/12/21 12:10:27;;;;;;;4.90;4.40;;;6.00;39.30;;;;;;10317449;28;20227;-75
2021/12/21 12:15:41;;;;;;;6.90;4.40;;;5.90;40.10;;;;;;10320462;28;20230;-75
2021/12/21 12:20:46;;;;;;;4.33;3.93;;;5.90;38.70;;;;;;10333757;28;20310;-76
2021/12/21 12:25:54;;;;;;;4.60;3.90;;;5.90;40.20;;;;;;10312915;28;20310;-74
2021/12/21 12:30:59;;;;;;;3.53;3.23;;;6.00;40.40;;;;;;10320786;28;20257;-74
2021/12/21 12:36:05;;;;;;;3.90;3.50;;;6.10;40.30;;;;;;10320633;28;20227;-73
2021/12/21 12:41:13;;;;;;;4.00;3.70;;;6.20;39.80;;;;;;10323826;28;20609;-74
2021/12/21 12:46:25;;;;;;;5.17;3.97;;;6.20;39.50;;;;;;10325784;28;20721;-73
2021/12/21 12:51:33;;;;;;;3.63;3.33;;;6.20;38.80;;;;;;10331851;28;20322;-73
2021/12/21 12:56:41;;;;;;;3.73;3.43;;;6.20;39.20;;;;;;10326563;28;20263;-73
2021/12/21 13:01:47;;;;;;;4.50;3.73;;;6.20;38.90;;;;;;10334518;28;20246;-73
2021/12/21 13:06:52;;;;;;;3.50;3.20;;;6.20;39.20;;;;;;10327930;28;20234;-73
2021/12/21 13:11:56;;;;;;;3.17;2.90;;;6.20;39.30;;;;;;10335603;28;20227;-73
2021/12/21 13:16:59;;;;;;;3.73;3.43;;;6.20;39.60;;;;;;10333762;28;20238;-72
2021/12/21 13:22:04;;;;;;;3.50;3.27;;;6.20;39.50;;;;;;10302142;28;20247;-76
2021/12/21 13:27:11;;;;;;;3.90;3.50;;;6.10;39.30;;;;;;10316873;28;20317;-73
2021/12/21 13:32:17;;;;;;;4.17;3.77;;;6.10;38.80;;;;;;10320942;28;20992;-74
2021/12/21 13:37:22;;;;;;;4.03;3.20;;;6.20;39.10;;;;;;10321932;28;20236;-73
2021/12/21 13:42:28;;;;;;;3.67;3.37;;;6.20;39.30;;;;;;10329550;28;20235;-74
2021/12/21 13:47:34;;;;;;;3.43;3.00;;;6.20;39.60;;;;;;10318987;28;20238;-74
2021/12/21 13:52:42;;;;;;;5.13;3.13;;;6.20;39.30;;;;;;10320078;28;20721;-75
2021/12/21 13:57:47;;;;;;;3.30;3.07;;;6.20;38.90;;;;;;10324082;28;20243;-75
2021/12/21 14:03:00;;;;;;;3.80;3.50;;;6.20;39.40;;;;;;10327026;28;20245;-75
2021/12/21 14:08:05;;;;;;;3.87;2.97;;;6.20;39.20;;;;;;10326552;28;20234;-75
2021/12/21 14:13:09;;;;;;;3.40;3.10;;;6.20;39.10;;;;;;10305717;28;20281;-79
2021/12/21 14:18:20;;;;;;;3.67;3.37;;;6.20;39.00;;;;;;10305755;28;20930;-76
2021/12/21 14:23:27;;;;;;;3.37;3.03;;;6.10;38.10;;;;;;10313788;28;20305;-77
2021/12/21 14:28:30;;;;;;;5.20;3.97;;;6.10;38.80;;;;;;10309199;28;20232;-76
2021/12/21 14:33:45;;;;;;;4.67;4.27;;;6.10;39.40;;;;;;10309319;28;20247;-77
2021/12/21 14:38:55;;;;;;;4.40;4.00;;;6.10;38.80;;;;;;10313863;28;20223;-77
2021/12/21 14:44:04;;;;;;;4.13;3.83;;;6.00;38.70;;;;;;10311865;28;20232;-77
2021/12/21 14:49:09;;;;;;;4.17;3.87;;;6.00;38.80;;;;;;10319617;28;20234;-77
2021/12/21 14:54:23;;;;;;;4.43;3.53;;;5.90;39.20;;;;;;10316089;28;20235;-77
2021/12/21 14:59:35;;;;;;;5.03;4.43;;;5.90;41.80;;;;;;10310520;28;20709;-76
2021/12/21 15:04:42;;;;;;;4.60;4.20;;;5.90;40.30;;;;;;10314277;28;20295;-75
2021/12/21 15:09:47;;;;;;;4.80;4.17;;;5.90;39.80;;;;;;10322059;28;20275;-77
2021/12/21 15:14:52;;;;;;;4.70;4.10;;;5.90;39.80;;;;;;10318826;28;20239;-76
2021/12/21 15:19:55;;;;;;;4.13;3.83;;;5.90;39.70;;;;;;10319392;28;20237;-76
2021/12/21 15:25:00;;;;;;;4.17;3.87;;;5.80;39.60;;;;;;10321542;28;20266;-76
2021/12/21 15:30:05;;;;;;;4.47;4.07;;;5.70;39.40;;;;;;10320786;28;20322;-78
2021/12/21 15:35:09;;;;;;;5.97;5.47;;;5.70;39.60;;;;;;10326004;28;21063;-78
2021/12/21 15:40:15;;;;;;;4.77;4.37;;;5.60;39.60;;;;;;10327102;28;20238;-78
2021/12/21 15:45:18;;;;;;;4.30;3.90;;;5.60;39.50;;;;;;10309101;28;20236;-78
2021/12/21 15:50:22;;;;;;;4.80;4.40;;;5.50;39.60;;;;;;10315142;28;20239;-78
2021/12/21 15:55:26;;;;;;;5.07;4.67;;;5.50;39.70;;;;;;10318161;28;20239;-78
2021/12/21 16:00:30;;;;;;;5.17;4.67;;;5.40;39.40;;;;;;10315432;28;20260;-78
2021/12/21 16:05:33;;;;;;;4.40;4.00;;;5.30;39.50;;;;;;10331436;28;20607;-75
2021/12/21 16:10:37;;;;;;;4.70;4.30;;;5.30;39.60;;;;;;10332319;28;20233;-75
2021/12/21 16:15:41;;;;;;;4.70;4.20;;;5.20;39.40;;;;;;10335873;28;20231;-74
2021/12/21 16:20:44;;;;;;;3.93;3.63;;;5.10;39.60;;;;;;10324625;28;20951;-74
2021/12/21 16:25:48;;;;;;;4.90;4.40;;;5.10;39.70;;;;;;10324171;28;20230;-74
2021/12/21 16:30:54;;;;;;;5.07;4.67;;;5.00;39.50;;;;;;10325131;28;20242;-74
2021/12/21 16:35:57;;;;;;;4.90;4.50;;;4.90;39.60;;;;;;10330373;28;20310;-74
2021/12/21 16:41:02;;;;;;;4.87;4.40;;;4.90;39.60;;;;;;10325327;28;20241;-74
2021/12/21 16:46:08;;;;;;;5.10;4.60;;;4.80;39.40;;;;;;10324792;28;20959;-74
2021/12/21 16:51:14;;;;;;;4.70;4.30;;;4.80;39.30;;;;;;10331940;28;20809;-74
2021/12/21 16:56:19;;;;;;;4.93;4.43;;;4.70;39.30;;;;;;10356496;28;20714;-74
2021/12/21 17:01:22;;;;;;;5.27;4.70;;;4.60;39.30;;;;;;10321780;28;20243;-74
2021/12/21 17:06:25;;;;;;;5.20;4.70;;;4.70;39.60;;;;;;10331073;28;20879;-74
2021/12/21 17:11:30;;;;;;;5.37;4.87;;;4.50;39.50;;;;;;10332999;28;20241;-74
2021/12/21 17:16:34;;;;;;;5.30;4.80;;;4.50;39.40;;;;;;10338217;28;20729;-73
2021/12/21 17:21:38;;;;;;;5.17;4.67;;;4.50;39.60;;;;;;10329250;28;20237;-73
2021/12/21 17:26:42;;;;;;;5.70;5.20;;;4.30;39.60;;;;;;10311616;28;20246;-73
2021/12/21 17:31:45;;;;;;;5.00;4.60;;;4.30;39.60;;;;;;10322840;28;20249;-73
2021/12/21 17:36:51;;;;;;;5.63;5.03;;;4.20;39.50;;;;;;10335097;28;20242;-73
2021/12/21 17:41:55;;;;;;;5.47;4.90;;;4.20;39.60;;;;;;10328967;28;20234;-73
2021/12/21 17:46:58;;;;;;;5.70;5.20;;;4.10;39.60;;;;;;10327318;28;20246;-73
2021/12/21 17:52:03;;;;;;;5.63;5.17;;;4.10;39.60;;;;;;10334908;28;20233;-73
2021/12/21 17:57:08;;;;;;;6.67;5.97;;;4.10;39.50;;;;;;10338173;28;20247;-74
2021/12/21 18:02:11;;;;;;;9.03;7.20;;;4.00;39.20;;;;;;10338068;28;20285;-73
2021/12/21 18:07:15;;;;;;;9.67;8.67;;;3.90;40.10;;;;;;10331675;28;20234;-73
2021/12/21 18:12:19;;;;;;;11.17;9.70;;;3.80;39.40;;;;;;10353327;28;20230;-73
2021/12/21 18:17:22;;;;;;;16.37;13.57;;;3.80;39.40;;;;;;10336839;28;20233;-74
2021/12/21 18:22:26;;;;;;;13.87;12.37;;;3.80;39.40;;;;;;10327766;28;20245;-74
2021/12/21 18:27:32;;;;;;;36.63;26.23;;;3.70;39.30;;;;;;10329129;28;20760;-74
2021/12/21 18:32:35;;;;;;;60.77;44.87;;;3.60;39.00;;;;;;10332747;28;20902;-74
2021/12/21 18:37:42;;;;;;;29.47;21.60;;;3.50;39.30;;;;;;10333946;28;20235;-74
2021/12/21 18:42:47;;;;;;;23.27;18.50;;;3.40;39.20;;;;;;10323096;28;20227;-74
2021/12/21 18:47:51;;;;;;;17.77;14.20;;;3.40;39.30;;;;;;10326638;28;20238;-74
2021/12/21 18:52:57;;;;;;;15.10;13.30;;;3.50;39.50;;;;;;10321689;28;20289;-74
2021/12/21 18:58:03;;;;;;;13.13;11.63;;;3.30;39.20;;;;;;10326944;28;20239;-74
2021/12/21 19:03:08;;;;;;;12.60;11.23;;;3.20;39.00;;;;;;10343390;28;20700;-74
2021/12/21 19:08:12;;;;;;;11.07;9.97;;;3.20;38.90;;;;;;10333784;28;20242;-74
2021/12/21 19:13:18;;;;;;;11.33;10.13;;;2.90;39.00;;;;;;10333540;28;20329;-74
2021/12/21 19:18:21;;;;;;;11.30;10.13;;;2.80;39.40;;;;;;10327230;28;20779;-74
2021/12/21 19:23:25;;;;;;;11.70;10.50;;;2.70;39.50;;;;;;10330598;28;20269;-73
2021/12/21 19:28:30;;;;;;;11.37;9.57;;;2.60;39.50;;;;;;10313726;28;20235;-74
2021/12/21 19:33:34;;;;;;;10.50;9.40;;;2.60;39.30;;;;;;10321080;28;20273;-74
2021/12/21 19:38:38;;;;;;;10.33;9.33;;;2.60;39.50;;;;;;10323838;28;20720;-73
2021/12/21 19:43:42;;;;;;;10.97;9.43;;;2.60;39.40;;;;;;10314689;28;20645;-74
2021/12/21 19:48:46;;;;;;;10.77;8.30;;;2.60;39.30;;;;;;10323570;28;20243;-74
2021/12/21 19:53:50;;;;;;;8.27;7.43;;;2.50;39.10;;;;;;10318525;28;20222;-72
2021/12/21 19:58:54;;;;;;;7.33;6.63;;;2.60;39.30;;;;;;10317332;28;20224;-72
2021/12/21 20:03:57;;;;;;;8.43;7.63;;;2.50;39.20;;;;;;10325517;28;20925;-73
2021/12/21 20:09:01;;;;;;;9.93;8.13;;;2.40;39.30;;;;;;10326670;28;20298;-73
2021/12/21 20:14:05;;;;;;;7.80;7.10;;;2.40;39.10;;;;;;10315414;28;20241;-72
2021/12/21 20:19:10;;;;;;;7.10;6.40;;;2.40;39.00;;;;;;10322341;28;20260;-73
2021/12/21 20:24:13;;;;;;;8.10;6.73;;;2.30;39.00;;;;;;10320422;28;20231;-73
2021/12/21 20:29:18;;;;;;;8.43;7.53;;;2.30;39.20;;;;;;10320332;28;20235;-72
2021/12/21 20:34:22;;;;;;;7.17;6.43;;;2.20;38.90;;;;;;10318427;28;20290;-73
2021/12/21 20:39:25;;;;;;;7.57;6.87;;;2.10;39.00;;;;;;10308037;28;20229;-74
2021/12/21 20:44:30;;;;;;;7.30;6.43;;;2.00;39.00;;;;;;10301254;28;20239;-73
2021/12/21 20:49:34;;;;;;;8.10;7.30;;;2.00;39.00;;;;;;10302130;28;20245;-73
2021/12/21 20:54:37;;;;;;;8.83;7.97;;;2.00;39.10;;;;;;10302718;28;20243;-74
2021/12/21 20:59:42;;;;;;;8.57;7.70;;;1.90;39.20;;;;;;10302717;28;20249;-74
2021/12/21 21:04:45;;;;;;;9.27;7.73;;;1.90;39.00;;;;;;10297966;28;20236;-74
2021/12/21 21:09:49;;;;;;;9.60;7.97;;;1.80;39.00;;;;;;10301161;28;20660;-73
2021/12/21 21:14:53;;;;;;;8.27;7.47;;;1.80;39.90;;;;;;10307814;28;20239;-75
2021/12/21 21:19:57;;;;;;;11.70;9.17;;;1.80;39.60;;;;;;10308163;28;20708;-74
2021/12/21 21:25:00;;;;;;;11.47;9.73;;;1.80;39.50;;;;;;10306354;28;20257;-74
2021/12/21 21:30:06;;;;;;;10.93;9.37;;;1.70;39.20;;;;;;10306197;28;20254;-73
2021/12/21 21:35:10;;;;;;;10.90;9.43;;;1.70;39.10;;;;;;10299478;28;20913;-74
2021/12/21 21:40:14;;;;;;;15.43;10.90;;;1.70;38.90;;;;;;10307323;28;21113;-75
2021/12/21 21:45:18;;;;;;;10.00;9.07;;;1.60;38.80;;;;;;10311723;28;20227;-74
2021/12/21 21:50:22;;;;;;;11.57;10.37;;;1.50;38.90;;;;;;10314004;28;20234;-74
2021/12/21 21:55:29;;;;;;;10.60;8.90;;;1.40;39.00;;;;;;10314615;28;20263;-74
2021/12/21 22:00:34;;;;;;;9.47;8.17;;;1.30;39.00;;;;;;10315816;28;20608;-75
2021/12/21 22:05:39;;;;;;;11.80;9.17;;;1.30;39.00;;;;;;10305758;28;20331;-74
2021/12/21 22:10:42;;;;;;;9.57;8.67;;;1.30;39.10;;;;;;10309479;28;20308;-74
2021/12/21 22:15:47;;;;;;;10.70;8.30;;;1.20;38.90;;;;;;10304946;28;20569;-74
2021/12/21 22:20:50;;;;;;;9.30;8.33;;;1.20;38.90;;;;;;10301502;28;20239;-73
2021/12/21 22:25:54;;;;;;;9.13;8.33;;;1.10;38.90;;;;;;10293505;28;20247;-74
2021/12/21 22:30:59;;;;;;;10.93;8.83;;;1.20;39.00;;;;;;10297542;28;20322;-75
2021/12/21 22:36:04;;;;;;;10.57;8.63;;;1.10;38.90;;;;;;10300392;28;20294;-74
2021/12/21 22:41:07;;;;;;;12.27;9.33;;;1.10;39.00;;;;;;10300312;28;20223;-74
2021/12/21 22:46:13;;;;;;;11.10;8.77;;;1.10;39.00;;;;;;10296943;28;20240;-74
2021/12/21 22:51:16;;;;;;;11.20;9.30;;;1.20;39.00;;;;;;10298154;28;20235;-74
2021/12/21 22:56:20;;;;;;;8.07;7.23;;;1.00;38.90;;;;;;10292993;28;20537;-75
2021/12/21 23:01:24;;;;;;;9.77;8.77;;;1.00;38.90;;;;;;10296626;28;20262;-74
2021/12/21 23:06:28;;;;;;;10.23;8.67;;;0.90;38.80;;;;;;10293678;28;20612;-74
2021/12/21 23:11:31;;;;;;;9.80;8.80;;;0.90;38.90;;;;;;10289643;28;20232;-74
2021/12/21 23:16:36;;;;;;;8.57;7.63;;;1.00;39.10;;;;;;10291236;28;20596;-74
2021/12/21 23:21:39;;;;;;;10.93;8.03;;;0.80;38.80;;;;;;10300745;28;20394;-74
2021/12/21 23:26:47;;;;;;;10.50;9.40;;;0.80;38.90;;;;;;10295442;28;20242;-74
2021/12/21 23:31:52;;;;;;;10.87;8.53;;;0.80;38.90;;;;;;10302688;28;20314;-74
2021/12/21 23:36:55;;;;;;;8.97;7.97;;;0.80;38.80;;;;;;10308288;28;20249;-75
2021/12/21 23:42:08;;;;;;;9.60;8.60;;;0.70;38.80;;;;;;10313095;28;20305;-74
2021/12/21 23:47:13;;;;;;;10.70;9.07;;;0.70;39.00;;;;;;10309053;28;20227;-74
2021/12/21 23:52:19;;;;;;;9.77;8.70;;;0.60;38.80;;;;;;10307994;28;20698;-75
2021/12/21 23:57:22;;;;;;;11.33;9.00;;;0.60;38.80;;;;;;10311585;28;20249;-75
